createdAt,value
2023-01-19T00:02:07.970Z,45.04
2023-01-19T00:04:41.293Z,44.92
2023-01-19T00:07:14.720Z,44.92
2023-01-19T00:09:48.014Z,44.85
2023-01-19T00:12:21.200Z,44.84
2023-01-19T00:14:54.434Z,45.06
2023-01-19T00:17:27.800Z,44.84
2023-01-19T00:20:01.021Z,44.86
2023-01-19T00:22:34.258Z,44.83
2023-01-19T00:25:08.397Z,44.87
2023-01-19T00:27:41.589Z,44.71
2023-01-19T00:30:16.656Z,44.78
2023-01-19T00:32:49.992Z,44.79
2023-01-19T00:35:23.302Z,44.85
2023-01-19T00:37:56.602Z,44.71
2023-01-19T00:40:29.886Z,44.78
2023-01-19T00:43:04.098Z,44.74
2023-01-19T00:45:37.620Z,44.76
2023-01-19T00:48:11.031Z,44.79
2023-01-19T00:50:44.298Z,44.79
2023-01-19T00:53:17.556Z,44.95
2023-01-19T00:55:50.769Z,44.84
2023-01-19T00:58:23.933Z,44.78
2023-01-19T01:01:03.391Z,44.93
2023-01-19T01:03:36.892Z,44.91
2023-01-19T01:06:10.437Z,44.78
2023-01-19T01:08:43.685Z,44.90
2023-01-19T01:11:17.051Z,44.79
2023-01-19T01:13:50.779Z,44.93
2023-01-19T01:16:24.951Z,44.82
2023-01-19T01:18:58.186Z,44.85
2023-01-19T01:21:31.400Z,44.91
2023-01-19T01:24:05.030Z,44.87
2023-01-19T01:26:38.401Z,44.90
2023-01-19T01:29:11.612Z,45.10
2023-01-19T01:31:44.816Z,45.01
2023-01-19T01:34:18.204Z,44.85
2023-01-19T01:36:51.403Z,44.83
2023-01-19T01:39:24.633Z,45.02
2023-01-19T01:41:57.847Z,44.85
2023-01-19T01:44:53.326Z,44.92
2023-01-19T01:47:33.333Z,45.02
2023-01-19T01:50:15.644Z,45.01
2023-01-19T01:53:06.357Z,45.02
2023-01-19T01:55:45.779Z,44.90
2023-01-19T01:58:19.301Z,45.00
2023-01-19T02:01:09.751Z,45.10
2023-01-19T02:03:43.435Z,44.97
2023-01-19T02:06:18.027Z,44.99
2023-01-19T02:09:14.564Z,45.10
2023-01-19T02:12:05.632Z,45.00
2023-01-19T02:14:40.125Z,45.13
2023-01-19T02:17:13.969Z,45.02
2023-01-19T02:19:47.263Z,45.01
2023-01-19T02:22:25.724Z,45.23
2023-01-19T02:24:59.193Z,45.08
2023-01-19T02:27:32.763Z,44.96
2023-01-19T02:30:07.252Z,44.97
2023-01-19T02:32:40.708Z,44.89
2023-01-19T02:35:15.426Z,45.03
2023-01-19T02:37:49.343Z,45.05
2023-01-19T02:40:25.207Z,45.03
2023-01-19T02:43:00.895Z,45.17
2023-01-19T02:45:34.965Z,45.16
2023-01-19T02:48:08.889Z,45.11
2023-01-19T02:50:49.345Z,45.18
2023-01-19T02:53:57.952Z,45.13
2023-01-19T02:57:02.258Z,45.24
2023-01-19T02:59:49.297Z,45.12
2023-01-19T03:02:34.387Z,45.21
2023-01-19T03:05:30.634Z,45.32
2023-01-19T03:08:15.907Z,45.09
2023-01-19T03:11:01.669Z,45.24
2023-01-19T03:13:46.672Z,45.33
2023-01-19T03:16:25.232Z,45.18
2023-01-19T03:19:06.018Z,45.29
2023-01-19T03:21:44.180Z,45.17
2023-01-19T03:24:20.156Z,45.35
2023-01-19T03:26:58.763Z,45.16
2023-01-19T03:29:35.951Z,45.27
2023-01-19T03:32:15.619Z,45.09
2023-01-19T03:34:51.261Z,45.11
2023-01-19T03:37:27.533Z,45.21
2023-01-19T03:40:01.149Z,45.22
2023-01-19T03:42:35.904Z,45.26
2023-01-19T03:45:12.443Z,45.25
2023-01-19T03:47:46.034Z,45.23
2023-01-19T03:50:27.994Z,45.28
2023-01-19T03:53:12.866Z,45.02
2023-01-19T03:55:49.398Z,45.07
2023-01-19T03:58:22.987Z,45.30
2023-01-19T04:00:56.382Z,45.15
2023-01-19T04:03:29.629Z,45.04
2023-01-19T04:06:02.857Z,45.21
2023-01-19T04:08:36.341Z,45.29
2023-01-19T04:11:13.281Z,45.19
2023-01-19T04:13:46.554Z,45.10
2023-01-19T04:16:21.172Z,45.27
2023-01-19T04:18:54.686Z,45.11
2023-01-19T04:21:28.041Z,44.96
2023-01-19T04:24:01.316Z,45.09
2023-01-19T04:26:34.581Z,45.15
2023-01-19T04:29:07.804Z,45.13
2023-01-19T04:31:41.142Z,45.08
2023-01-19T04:34:14.367Z,45.29
2023-01-19T04:36:51.001Z,45.05
2023-01-19T04:39:24.260Z,45.37
2023-01-19T04:41:57.576Z,44.94
2023-01-19T04:44:30.822Z,45.27
2023-01-19T04:47:04.037Z,45.25
2023-01-19T04:49:37.671Z,45.26
2023-01-19T04:52:11.128Z,45.07
2023-01-19T04:54:44.304Z,45.12
2023-01-19T04:57:17.541Z,45.17
2023-01-19T04:59:50.784Z,45.17
2023-01-19T05:02:24.251Z,45.07
2023-01-19T05:04:57.566Z,45.18
2023-01-19T05:07:30.957Z,45.22
2023-01-19T05:10:04.691Z,45.59
2023-01-19T05:12:38.102Z,45.09
2023-01-19T05:15:13.325Z,44.96
2023-01-19T05:17:46.558Z,45.13
2023-01-19T05:20:20.245Z,45.09
2023-01-19T05:22:56.436Z,45.06
2023-01-19T05:25:29.797Z,45.03
2023-01-19T05:28:03.956Z,45.05
2023-01-19T05:30:38.340Z,45.22
2023-01-19T05:33:11.632Z,45.15
2023-01-19T05:35:44.801Z,45.41
2023-01-19T05:38:23.381Z,45.05
2023-01-19T05:41:02.748Z,45.12
2023-01-19T05:43:36.061Z,45.14
2023-01-19T05:46:09.703Z,45.02
2023-01-19T05:48:42.970Z,45.23
2023-01-19T05:51:16.216Z,45.49
2023-01-19T05:53:49.445Z,45.44
2023-01-19T05:56:23.071Z,45.07
2023-01-19T05:58:56.472Z,45.37
2023-01-19T06:01:30.036Z,45.22
2023-01-19T06:04:03.351Z,45.17
2023-01-19T06:06:36.554Z,45.37
2023-01-19T06:09:10.003Z,45.24
2023-01-19T06:11:43.275Z,45.55
2023-01-19T06:14:16.725Z,45.68
2023-01-19T06:16:50.027Z,45.63
2023-01-19T06:19:23.386Z,45.39
2023-01-19T06:21:56.738Z,45.42
2023-01-19T06:24:30.953Z,45.35
2023-01-19T06:27:06.505Z,45.30
2023-01-19T06:29:39.817Z,45.42
2023-01-19T06:32:13.188Z,45.37
2023-01-19T06:34:47.057Z,45.38
2023-01-19T06:37:20.466Z,45.15
2023-01-19T06:39:53.730Z,45.01
2023-01-19T06:42:26.953Z,44.95
2023-01-19T06:45:00.205Z,45.69
2023-01-19T06:47:34.432Z,45.75
2023-01-19T06:50:09.157Z,46.19
2023-01-19T06:52:42.696Z,46.93
2023-01-19T06:55:16.218Z,46.51
2023-01-19T06:57:49.509Z,46.32
2023-01-19T07:00:24.687Z,46.31
2023-01-19T07:02:57.996Z,46.19
2023-01-19T07:05:31.315Z,46.18
2023-01-19T07:08:04.907Z,46.29
2023-01-19T07:11:25.361Z,46.60
2023-01-19T07:13:31.526Z,46.33
2023-01-19T07:16:09.023Z,45.50
2023-01-19T07:18:43.241Z,45.91
2023-01-19T07:21:16.842Z,45.88
2023-01-19T07:23:52.560Z,45.70
2023-01-19T07:26:27.831Z,45.57
2023-01-19T07:29:01.108Z,45.51
2023-01-19T07:31:34.474Z,45.43
2023-01-19T07:34:07.904Z,45.37
2023-01-19T07:36:41.105Z,45.34
2023-01-19T07:39:14.418Z,45.88
2023-01-19T07:41:48.735Z,46.18
2023-01-19T07:44:22.228Z,46.04
2023-01-19T07:46:55.872Z,45.59
2023-01-19T07:49:29.087Z,45.43
2023-01-19T07:52:02.332Z,45.60
2023-01-19T07:54:35.618Z,45.43
2023-01-19T07:57:08.917Z,45.17
2023-01-19T07:59:42.153Z,45.68
2023-01-19T08:02:16.454Z,45.61
2023-01-19T08:04:51.916Z,45.40
2023-01-19T08:07:25.232Z,45.29
2023-01-19T08:09:58.391Z,45.42
2023-01-19T08:12:31.704Z,45.35
2023-01-19T08:15:05.291Z,45.48
2023-01-19T08:17:38.928Z,45.23
2023-01-19T08:20:14.924Z,45.22
2023-01-19T08:22:49.880Z,45.12
2023-01-19T08:25:23.467Z,44.87
2023-01-19T08:27:59.355Z,45.04
2023-01-19T08:30:32.812Z,45.07
2023-01-19T08:33:08.135Z,45.10
2023-01-19T08:35:43.812Z,44.90
2023-01-19T08:38:17.572Z,44.70
2023-01-19T08:40:51.215Z,44.74
2023-01-19T08:43:24.875Z,44.76
2023-01-19T08:45:58.223Z,44.61
2023-01-19T08:48:31.533Z,44.72
2023-01-19T08:51:05.157Z,44.78
2023-01-19T08:53:38.524Z,44.61
2023-01-19T08:56:13.763Z,44.57
2023-01-19T08:58:59.555Z,44.59
2023-01-19T09:01:41.542Z,44.73
2023-01-19T09:04:14.847Z,44.55
2023-01-19T09:06:48.739Z,44.55
2023-01-19T09:09:21.981Z,44.61
2023-01-19T09:11:56.197Z,44.80
2023-01-19T09:14:29.520Z,44.68
2023-01-19T09:17:02.858Z,44.72
2023-01-19T09:19:36.094Z,44.78
2023-01-19T09:22:09.338Z,44.45
2023-01-19T09:24:42.598Z,44.64
2023-01-19T09:27:15.926Z,44.31
2023-01-19T09:29:52.462Z,44.88
2023-01-19T09:32:25.826Z,44.84
2023-01-19T09:34:59.183Z,44.72
2023-01-19T09:37:32.443Z,44.61
2023-01-19T09:40:06.474Z,44.62
2023-01-19T09:42:44.878Z,44.65
2023-01-19T09:45:28.154Z,44.59
2023-01-19T09:48:03.621Z,44.93
2023-01-19T09:50:46.503Z,44.06
2023-01-19T09:53:28.995Z,44.65
2023-01-19T09:56:02.532Z,45.96
2023-01-19T09:58:35.782Z,48.08
2023-01-19T10:01:24.118Z,47.79
2023-01-19T10:04:32.461Z,48.52
2023-01-19T10:07:33.365Z,48.82
2023-01-19T10:10:18.671Z,48.52
2023-01-19T10:13:05.355Z,48.78
2023-01-19T10:15:53.396Z,48.73
2023-01-19T10:18:34.893Z,48.34
2023-01-19T10:21:15.686Z,47.88
2023-01-19T10:23:54.317Z,47.69
2023-01-19T10:26:34.093Z,47.63
2023-01-19T10:29:22.744Z,47.33
2023-01-19T10:32:09.163Z,47.21
2023-01-19T10:34:42.590Z,47.18
2023-01-19T10:37:28.591Z,47.18
2023-01-19T10:40:17.031Z,46.93
2023-01-19T10:42:50.307Z,46.14
2023-01-19T10:45:26.894Z,46.05
2023-01-19T10:48:05.883Z,46.23
2023-01-19T10:50:40.707Z,46.17
2023-01-19T10:53:25.783Z,46.31
2023-01-19T10:58:56.244Z,45.87
2023-01-19T11:01:35.791Z,46.08
2023-01-19T11:04:29.131Z,45.86
2023-01-19T11:07:20.336Z,46.29
2023-01-19T11:10:21.127Z,45.98
2023-01-19T11:13:03.756Z,45.85
2023-01-19T11:15:44.603Z,45.63
2023-01-19T11:18:31.538Z,46.03
2023-01-19T11:21:07.908Z,45.71
2023-01-19T11:23:45.801Z,45.89
2023-01-19T11:26:28.248Z,46.56
2023-01-19T11:29:04.360Z,45.70
2023-01-19T11:31:38.640Z,45.45
2023-01-19T11:34:34.980Z,47.38
2023-01-19T11:37:29.472Z,47.95
2023-01-19T11:40:06.161Z,47.89
2023-01-19T11:42:39.742Z,47.66
2023-01-19T11:45:18.767Z,46.96
2023-01-19T11:47:52.577Z,46.82
2023-01-19T11:50:32.743Z,46.54
2023-01-19T11:53:14.734Z,46.51
2023-01-19T11:55:57.163Z,46.32
2023-01-19T11:58:34.193Z,46.26
2023-01-19T12:01:15.300Z,46.26
2023-01-19T12:03:57.585Z,46.29
2023-01-19T12:06:34.299Z,46.37
2023-01-19T12:09:17.235Z,46.34
2023-01-19T12:11:56.448Z,45.98
2023-01-19T12:14:38.602Z,46.00
2023-01-19T12:17:24.336Z,46.26
2023-01-19T12:20:06.654Z,46.22
2023-01-19T12:22:49.453Z,47.12
2023-01-19T12:25:30.920Z,47.25
2023-01-19T12:28:06.320Z,48.08
2023-01-19T12:30:40.188Z,45.98
2023-01-19T12:33:35.938Z,45.88
2023-01-19T12:36:33.651Z,46.53
2023-01-19T12:39:13.837Z,46.89
2023-01-19T12:41:48.159Z,47.48
2023-01-19T12:44:34.003Z,48.17
2023-01-19T12:47:24.523Z,48.30
2023-01-19T12:50:06.918Z,47.58
2023-01-19T12:52:51.438Z,47.77
2023-01-19T12:55:31.025Z,48.41
2023-01-19T12:58:08.067Z,46.76
2023-01-19T13:00:44.540Z,46.83
2023-01-19T13:03:59.282Z,48.95
2023-01-19T13:07:13.577Z,48.48
2023-01-19T13:09:46.928Z,48.06
2023-01-19T13:12:28.899Z,49.02
2023-01-19T13:15:38.122Z,50.17
2023-01-19T13:18:17.661Z,47.62
2023-01-19T13:20:58.103Z,48.94
2023-01-19T13:23:56.682Z,50.20
2023-01-19T13:26:34.722Z,48.25
2023-01-19T13:29:15.425Z,49.64
2023-01-19T13:31:50.303Z,50.79
2023-01-19T13:34:27.680Z,49.26
2023-01-19T13:37:02.049Z,49.32
2023-01-19T13:39:38.849Z,50.76
2023-01-19T13:42:19.588Z,49.83
2023-01-19T13:44:58.510Z,51.67
2023-01-19T13:47:40.416Z,50.14
2023-01-19T13:50:24.881Z,49.18
2023-01-19T13:52:59.274Z,49.60
2023-01-19T13:55:33.518Z,48.77
2023-01-19T13:58:20.846Z,48.38
2023-01-19T14:00:54.225Z,48.12
2023-01-19T14:03:28.019Z,48.49
2023-01-19T14:06:01.375Z,47.97
2023-01-19T14:08:34.833Z,48.00
2023-01-19T14:11:14.609Z,48.33
2023-01-19T14:13:47.871Z,48.62
2023-01-19T14:16:28.623Z,48.78
2023-01-19T14:19:05.884Z,49.75
2023-01-19T14:21:44.409Z,49.22
2023-01-19T14:24:23.918Z,49.14
2023-01-19T14:27:11.932Z,48.77
2023-01-19T14:29:45.930Z,48.62
2023-01-19T14:32:21.949Z,48.40
2023-01-19T14:35:15.416Z,49.95
2023-01-19T14:37:53.050Z,50.04
2023-01-19T14:40:38.835Z,49.13
2023-01-19T14:43:16.109Z,49.42
2023-01-19T14:45:50.339Z,49.51
2023-01-19T14:48:25.788Z,49.73
2023-01-19T14:51:05.829Z,49.95
2023-01-19T14:53:40.813Z,51.23
2023-01-19T14:56:24.412Z,50.89
2023-01-19T14:58:58.604Z,50.46
2023-01-19T15:01:32.164Z,50.76
2023-01-19T15:04:05.689Z,49.16
2023-01-19T15:06:45.862Z,49.77
2023-01-19T15:09:19.337Z,48.87
2023-01-19T15:11:54.043Z,49.75
2023-01-19T15:14:27.918Z,50.30
2023-01-19T15:17:01.225Z,49.12
2023-01-19T15:19:34.880Z,49.48
2023-01-19T15:22:14.759Z,48.86
2023-01-19T15:24:48.027Z,49.18
2023-01-19T15:27:23.296Z,49.14
2023-01-19T15:29:56.571Z,48.92
2023-01-19T15:32:29.841Z,48.63
2023-01-19T15:35:03.183Z,48.79
2023-01-19T15:37:36.548Z,48.57
2023-01-19T15:40:13.695Z,48.40
2023-01-19T15:42:47.202Z,48.42
2023-01-19T15:45:38.290Z,48.04
2023-01-19T15:48:13.077Z,47.78
2023-01-19T15:50:47.931Z,47.74
2023-01-19T15:53:24.052Z,47.70
2023-01-19T15:55:57.966Z,47.23
2023-01-19T15:58:31.186Z,47.73
2023-01-19T16:01:17.326Z,47.65
2023-01-19T16:03:51.282Z,47.54
2023-01-19T16:06:24.586Z,47.60
2023-01-19T16:09:01.280Z,46.87
2023-01-19T16:11:37.684Z,46.12
2023-01-19T16:14:10.923Z,46.33
2023-01-19T16:16:46.021Z,47.09
2023-01-19T16:19:19.709Z,47.10
2023-01-19T16:21:53.135Z,46.97
2023-01-19T16:24:26.481Z,47.22
2023-01-19T16:27:00.534Z,47.29
2023-01-19T16:29:33.979Z,46.96
2023-01-19T16:32:08.158Z,46.82
2023-01-19T16:34:41.539Z,47.16
2023-01-19T16:37:15.278Z,46.78
2023-01-19T16:39:50.605Z,46.63
2023-01-19T16:42:23.960Z,46.70
2023-01-19T16:44:57.231Z,46.71
2023-01-19T16:47:30.941Z,46.27
2023-01-19T16:50:05.142Z,46.37
2023-01-19T16:52:38.492Z,46.50
2023-01-19T16:55:13.247Z,46.30
2023-01-19T16:57:46.530Z,46.36
2023-01-19T17:00:21.408Z,46.17
2023-01-19T17:02:54.873Z,46.41
2023-01-19T17:05:28.125Z,46.66
2023-01-19T17:08:01.566Z,46.61
2023-01-19T17:10:40.233Z,46.30
2023-01-19T17:13:13.664Z,46.20
2023-01-19T17:15:47.053Z,46.09
2023-01-19T17:18:20.265Z,46.07
2023-01-19T17:20:53.535Z,45.97
2023-01-19T17:23:26.724Z,45.95
2023-01-19T17:26:01.009Z,45.90
2023-01-19T17:28:34.370Z,45.99
2023-01-19T17:31:11.818Z,46.07
2023-01-19T17:33:49.119Z,45.99
2023-01-19T17:36:25.473Z,46.05
2023-01-19T17:39:00.622Z,46.07
2023-01-19T17:41:36.436Z,45.87
2023-01-19T17:44:10.176Z,45.92
2023-01-19T17:46:43.367Z,45.90
2023-01-19T17:49:16.518Z,45.84
2023-01-19T17:51:54.349Z,45.84
2023-01-19T17:54:27.655Z,45.66
2023-01-19T17:57:00.820Z,45.74
2023-01-19T17:59:34.282Z,45.74
2023-01-19T18:02:07.699Z,45.77
2023-01-19T18:04:42.676Z,45.78
2023-01-19T18:07:15.941Z,45.72
2023-01-19T18:09:49.321Z,45.77
2023-01-19T18:12:23.224Z,45.63
2023-01-19T18:14:56.749Z,45.62
2023-01-19T18:17:30.764Z,45.46
2023-01-19T18:20:04.815Z,45.40
2023-01-19T18:22:38.069Z,45.43
2023-01-19T18:25:12.321Z,45.43
2023-01-19T18:27:45.597Z,45.50
2023-01-19T18:30:21.143Z,45.41
2023-01-19T18:32:54.749Z,45.44
2023-01-19T18:35:28.960Z,45.52
2023-01-19T18:38:02.204Z,45.32
2023-01-19T18:40:35.932Z,45.33
2023-01-19T18:43:09.388Z,45.06
2023-01-19T18:45:42.950Z,45.27
2023-01-19T18:48:18.057Z,45.02
2023-01-19T18:50:51.851Z,45.11
2023-01-19T18:53:25.303Z,45.10
2023-01-19T18:56:01.809Z,45.12
2023-01-19T18:58:38.001Z,45.45
2023-01-19T19:01:24.208Z,45.08
2023-01-19T19:04:00.680Z,45.31
2023-01-19T19:06:34.702Z,45.07
2023-01-19T19:09:08.101Z,44.73
2023-01-19T19:11:41.663Z,44.86
2023-01-19T19:14:15.174Z,45.15
2023-01-19T19:16:48.433Z,44.77
2023-01-19T19:19:21.900Z,45.37
2023-01-19T19:21:56.612Z,45.38
2023-01-19T19:24:30.290Z,45.58
2023-01-19T19:27:03.752Z,45.58
2023-01-19T19:29:36.956Z,45.16
2023-01-19T19:32:10.422Z,45.46
2023-01-19T19:34:43.949Z,45.66
2023-01-19T19:37:17.567Z,45.64
2023-01-19T19:39:51.707Z,45.33
2023-01-19T19:42:25.077Z,45.97
2023-01-19T19:44:58.535Z,45.84
2023-01-19T19:47:31.834Z,45.53
2023-01-19T19:50:05.228Z,45.93
2023-01-19T19:52:43.165Z,45.35
2023-01-19T19:55:16.626Z,45.69
2023-01-19T19:57:49.948Z,45.31
2023-01-19T20:00:24.651Z,45.75
2023-01-19T20:02:57.913Z,45.74
2023-01-19T20:05:31.499Z,45.94
2023-01-19T20:08:04.780Z,46.23
2023-01-19T20:10:38.480Z,46.27
2023-01-19T20:13:11.688Z,45.72
2023-01-19T20:15:44.959Z,45.72
2023-01-19T20:18:18.550Z,45.79
2023-01-19T20:20:52.173Z,45.58
2023-01-19T20:23:25.469Z,45.70
2023-01-19T20:25:58.937Z,45.52
2023-01-19T20:28:32.212Z,45.57
2023-01-19T20:31:16.505Z,45.65
2023-01-19T20:33:51.527Z,45.47
2023-01-19T20:36:25.151Z,45.37
2023-01-19T20:39:00.500Z,45.54
2023-01-19T20:41:34.029Z,45.39
2023-01-19T20:44:07.689Z,45.35
2023-01-19T20:46:41.471Z,45.51
2023-01-19T20:49:15.532Z,45.36
2023-01-19T20:51:50.099Z,45.31
2023-01-19T20:54:28.046Z,45.04
2023-01-19T20:57:01.834Z,45.04
2023-01-19T20:59:37.030Z,45.25
2023-01-19T21:02:15.107Z,45.23
2023-01-19T21:04:48.697Z,45.23
2023-01-19T21:07:21.959Z,45.12
2023-01-19T21:09:55.243Z,45.02
2023-01-19T21:12:28.670Z,45.06
2023-01-19T21:15:01.918Z,45.07
2023-01-19T21:17:35.237Z,45.03
2023-01-19T21:20:11.879Z,45.04
2023-01-19T21:22:45.549Z,45.00
2023-01-19T21:25:19.080Z,44.65
2023-01-19T21:27:52.445Z,44.91
2023-01-19T21:30:25.945Z,44.89
2023-01-19T21:33:02.406Z,44.94
2023-01-19T21:35:35.980Z,44.96
2023-01-19T21:38:09.604Z,44.90
2023-01-19T21:40:42.841Z,44.68
2023-01-19T21:43:16.204Z,44.71
2023-01-19T21:45:50.513Z,44.80
2023-01-19T21:48:23.795Z,44.72
2023-01-19T21:51:01.975Z,44.28
2023-01-19T21:53:35.331Z,43.98
2023-01-19T21:56:10.912Z,43.95
2023-01-19T21:58:45.968Z,44.77
2023-01-19T22:01:19.501Z,44.51
2023-01-19T22:03:55.855Z,44.63
2023-01-19T22:06:30.112Z,44.76
2023-01-19T22:09:03.491Z,45.06
2023-01-19T22:11:36.732Z,45.33
2023-01-19T22:14:11.360Z,44.10
2023-01-19T22:16:44.646Z,44.37
2023-01-19T22:19:17.920Z,45.43
2023-01-19T22:21:51.269Z,45.92
2023-01-19T22:24:24.483Z,45.60
2023-01-19T22:26:57.861Z,45.92
2023-01-19T22:29:31.515Z,45.29
2023-01-19T22:32:04.821Z,45.47
2023-01-19T22:34:38.407Z,45.17
2023-01-19T22:37:11.677Z,45.14
2023-01-19T22:39:44.966Z,45.15
2023-01-19T22:42:18.282Z,45.06
2023-01-19T22:44:51.940Z,44.38
2023-01-19T22:47:25.249Z,44.74
2023-01-19T22:49:58.521Z,45.96
2023-01-19T22:52:31.982Z,45.95
2023-01-19T22:55:05.605Z,45.09
2023-01-19T22:57:39.550Z,44.85
2023-01-19T23:00:16.611Z,44.94
2023-01-19T23:02:49.860Z,44.93
2023-01-19T23:05:23.179Z,44.90
2023-01-19T23:07:58.728Z,44.73
2023-01-19T23:10:33.119Z,44.71
2023-01-19T23:13:06.315Z,44.46
2023-01-19T23:15:39.606Z,44.61
2023-01-19T23:18:12.780Z,44.78
2023-01-19T23:20:46.020Z,44.69
2023-01-19T23:23:19.387Z,44.49
2023-01-19T23:25:52.560Z,44.43
2023-01-19T23:28:25.849Z,44.79
2023-01-19T23:30:59.195Z,44.29
2023-01-19T23:33:32.505Z,44.57
2023-01-19T23:36:06.298Z,44.63
2023-01-19T23:38:40.084Z,44.53
2023-01-19T23:41:13.479Z,44.58
2023-01-19T23:43:47.142Z,44.31
2023-01-19T23:46:22.189Z,44.38
2023-01-19T23:48:56.456Z,44.55
2023-01-19T23:51:32.970Z,44.25
2023-01-19T23:54:06.536Z,44.41
2023-01-19T23:56:42.496Z,43.94
2023-01-19T23:59:18.096Z,44.25
